AirNav   Everest Fuels
 
 494 users online  

MY77 North Memorial Heliport
Robbinsdale, Minnesota, USA

GOING TO ROBBINSDALE?


FAA INFORMATION EFFECTIVE 18 JUNE 2020

Location

FAA Identifier: MY77
Lat/Long: 45-00-52.3000N 093-19-13.2100W
45-00.871667N 093-19.220167W
45.0145278,-93.3203361
(estimated)
Elevation: 930 ft. / 283 m (estimated)
Variation: 04E (1980)
From city: 1 mile SE of ROBBINSDALE, MN
Time zone: UTC -5 (UTC -6 during Standard Time)
Zip code: 55422

Heliport Operations

Heliport use: Private use, MEDICAL USE.
Activation date: 12/1986
Control tower: no
ARTCC: MINNEAPOLIS CENTER
FSS: PRINCETON FLIGHT SERVICE STATION
Attendance: CONTINUOUS
Wind indicator: lighted
Segmented circle: no
Lights: ACTVT PERIMETER AND FLOOD LGTS - 122.975.
Beacon: white (unlighted land airport)
ACTVT ROTG BCN - 122.975.

Heliport Communications

WX ASOS at MIC (3 nm NW): 125.7 (763-531-2343)
WX ASOS at MSP (9 nm SE): 135.35 (612-713-4174)
WX AWOS-3 at ANE (9 nm NE): 120.625 (763-780-9025)
WX ASOS at STP (12 nm SE): 118.35 (651-312-8888)
WX ASOS at FCM (13 nm SW): 124.9 (952-941-4156)
WX AWOS-3 at SGS (15 nm SE): 119.425 (651-457-8120)
WX AWOS-3 at 21D (20 nm E): 120.075 (651-779-5949)

Nearby radio navigation aids

VOR radial/distance  VOR name  Freq  Var
MSPr331/7.9MINNEAPOLIS VOR/DME115.3002E
GEPr158/8.2GOPHER VORTAC117.3006E
FCMr024/12.5FLYING CLOUD VOR/DME117.7001E
FGTr340/23.8FARMINGTON VORTAC115.7006E

 
NDB name  Hdg/Dist  Freq  Var  ID
HOPEY295/18.240003EPPI .--. .--. ..
CAMBRIDGE183/32.735001ECBG -.-. -... --.
PRINCETON157/35.236803EPNM .--. -. --
GLENCOE062/36.040703EGYL --. -.-- .-..

Heliport Services

Fuel available: A

Runway Information

Helipad H1

Dimensions: 120 x 100 ft. / 37 x 30 m
Surface: concrete
ROOFTOP.
Runway edge lights: PERI
AND FLOOD LGTS.
Latitude: 45-00.871667N
Longitude: 093-19.220167W
Elevation: 930.0 ft.
Traffic pattern: leftleft

Heliport Ownership and Management from official FAA records

Ownership: Privately-owned
Owner: NORTH MEMORIAL MEDICAL CENTER
3300 OAKDALE N.
ROBBINSDALE, MN 55422
Phone (763) 535-6468
Manager: JOSHUA H. JONES
5800 CRYSTAL AIRPORT RD.
CRYSTAL, MN 55425
Phone 763-535-6468

Heliport Operational Statistics

Aircraft based on the field: 1
Helicopters: 1
    

Additional Remarks

FOR CD CTC MINNEAPOLIS ARTCC AT 651-463-5588.
A52-H1 80' BLDG 350'E & 20' TWR 130'SE.

Instrument Procedures

There are no published instrument procedures at MY77.

Some nearby airports with instrument procedures:

KMIC - Crystal Airport (3 nm NW)
KMSP - Minneapolis-St Paul International/Wold-Chamberlain Airport (9 nm SE)
KANE - Anoka County-Blaine Airport (Janes Field) (9 nm NE)
KSTP - St Paul Downtown Airport Holman Field (12 nm SE)
KFCM - Flying Cloud Airport (13 nm SW)
KSGS - South St Paul Municipal Airport-Richard E Fleming Field (15 nm SE)
21D - Lake Elmo Airport (20 nm E)
 
Loc | Ops | Rwys | IFR | FBO | Links
Com | Nav | Svcs | Stats | Notes
Area around MY77 (North Memorial Heliport)
 
Road maps at: MapQuest Bing Google
 
Aerial photo
No photo
 
Sectional chart

 
Airport distance calculator
Flying to North Memorial Heliport? Find the distance to fly.

From to MY77

Sunrise and sunset
Times for 13-Jul-2020
 Local
(UTC-5)
 Zulu
(UTC)
Morning civil twilight05:0510:05
Sunrise05:4110:41
Sunset20:5701:57
Evening civil twilight21:3302:33

Current date and time
Zulu (UTC)  13-Jul-2020 05:24:09
Local (UTC-5)  13-Jul-2020 00:24:09
 
METAR
KMIC 
3nm N 
130453Z AUTO 11004KT 10SM CLR 22/15 A2992 RMK AO2 SLP127 T02220150
KANE 
8nm NE 
130457Z AUTO 11004KT 10SM CLR 22/16 A2994 RMK AO2
KMSP 
9nm SE 
130453Z 13006KT 10SM FEW250 23/16 A2993 RMK AO2 SLP131 T02280161
KSGS 
12nm SE 
130455Z AUTO 00000KT 10SM CLR 22/16 A2994 RMK AO2 T02170156
KSTP 
12nm SE 
130453Z 15008KT 10SM CLR 21/16 A2994 RMK AO2 SLP131 T02110161
KFCM 
13nm SW 
130453Z 14003KT 10SM CLR 22/16 A2992 RMK AO2 SLP127 T02170161 $
K21D 
20nm E 
130455Z AUTO 00000KT 10SM CLR 18/16 A2996 RMK AO2
TAF
KMSP 
9nm SE 
130242Z 1303/1406 15006KT P6SM SCT060 BKN250 FM131800 15014G22KT P6SM SCT050 BKN200
NOTAMs
Click for the latest NOTAMs
NOTAMs are issued by the DoD/FAA and will open in a separate window not controlled by AirNav.

 

 
 

Would you like to see your business listed on this page?

 If your business provides an interesting product or service to pilots, flight crews, aircraft, or users of the North Memorial Heliport, you should consider listing it here.  To start the listing process, click on the button below
 
Add a business
 

Other Pages about North Memorial Heliport

Update a link
 
Copyright © AirNav, LLC. All rights reserved. Privacy Policy  Contact